Time;durP1;ratioP1;P1;durP2;ratioP2;P2;SDS_P1;SDS_P2;PMS_P1;PMS_P2;Temp;Humidity;BMP_temperature;BMP_pressure;BME280_temperature;BME280_humidity;BME280_pressure;Samples;Min_cycle;Max_cycle;Signal;HPM_P1;HPM_P2
2022/10/30 00:00:22;;;;;;;28.02;15.20;;;;;;;;;;5329446;27;20302;-70
2022/10/30 00:02:48;;;;;;;21.92;13.93;;;;;;;;;;5325726;27;20013;-70
2022/10/30 00:05:13;;;;;;;29.92;15.90;;;;;;;;;;5308509;27;20306;-69
2022/10/30 00:07:38;;;;;;;23.75;15.05;;;;;;;;;;5326205;27;20007;-68
2022/10/30 00:10:04;;;;;;;28.60;14.97;;;;;;;;;;5328800;27;20312;-68
2022/10/30 00:12:29;;;;;;;21.60;15.25;;;;;;;;;;5306382;27;20114;-69
2022/10/30 00:14:54;;;;;;;26.62;14.30;;;;;;;;;;5308708;27;20056;-70
2022/10/30 00:17:19;;;;;;;25.35;14.35;;;;;;;;;;5328001;27;20015;-68
2022/10/30 00:19:44;;;;;;;25.52;15.20;;;;;;;;;;5327115;27;20000;-68
2022/10/30 00:22:09;;;;;;;26.20;14.30;;;;;;;;;;5308638;27;20333;-68
2022/10/30 00:24:35;;;;;;;20.45;14.43;;;;;;;;;;5329204;27;20012;-68
2022/10/30 00:27:00;;;;;;;18.42;13.62;;;;;;;;;;5306745;27;20119;-69
2022/10/30 00:29:25;;;;;;;29.60;14.68;;;;;;;;;;5328152;27;20070;-68
2022/10/30 00:31:51;;;;;;;23.30;13.23;;;;;;;;;;5329379;27;20415;-68
2022/10/30 00:34:16;;;;;;;28.25;14.50;;;;;;;;;;5328006;27;20016;-67
2022/10/30 00:36:41;;;;;;;29.08;15.18;;;;;;;;;;5326988;27;20011;-68
2022/10/30 00:39:06;;;;;;;24.23;14.48;;;;;;;;;;5324110;26;20009;-73
2022/10/30 00:41:32;;;;;;;30.25;15.23;;;;;;;;;;5323489;27;20374;-72
2022/10/30 00:43:57;;;;;;;24.17;13.95;;;;;;;;;;5325458;27;20034;-74
2022/10/30 00:46:28;;;;;;;31.87;15.13;;;;;;;;;;5325860;27;20024;-73
2022/10/30 00:48:55;;;;;;;25.15;13.45;;;;;;;;;;5302705;27;20033;-73
2022/10/30 00:51:21;;;;;;;27.73;13.60;;;;;;;;;;5325409;27;20032;-74
2022/10/30 00:53:47;;;;;;;35.70;14.35;;;;;;;;;;5323933;27;20015;-73
2022/10/30 00:56:13;;;;;;;32.60;14.32;;;;;;;;;;5302889;27;20000;-73
2022/10/30 00:58:40;;;;;;;24.90;13.82;;;;;;;;;;5325556;27;20000;-73
2022/10/30 01:01:07;;;;;;;27.73;13.43;;;;;;;;;;5324627;27;20001;-72
2022/10/30 01:03:33;;;;;;;22.87;14.60;;;;;;;;;;5321681;27;20408;-73
2022/10/30 01:06:01;;;;;;;27.25;14.18;;;;;;;;;;5301424;27;20016;-74
2022/10/30 01:08:26;;;;;;;25.58;13.55;;;;;;;;;;5322349;27;20004;-73
2022/10/30 01:10:52;;;;;;;31.00;16.37;;;;;;;;;;5321763;27;19997;-73
2022/10/30 01:13:19;;;;;;;24.10;14.40;;;;;;;;;;5321870;27;20015;-73
2022/10/30 01:15:58;;;;;;;27.17;14.30;;;;;;;;;;5321937;27;20462;-73
2022/10/30 01:18:29;;;;;;;22.15;14.60;;;;;;;;;;5324535;27;20067;-74
2022/10/30 01:21:13;;;;;;;31.45;16.75;;;;;;;;;;5322853;27;20346;-74
2022/10/30 01:23:53;;;;;;;33.72;15.38;;;;;;;;;;5324875;27;20045;-73
2022/10/30 01:26:27;;;;;;;27.37;13.70;;;;;;;;;;5324063;27;20025;-74
2022/10/30 01:28:58;;;;;;;22.45;14.20;;;;;;;;;;5302991;27;20283;-74
2022/10/30 01:31:33;;;;;;;30.67;15.80;;;;;;;;;;5303237;27;20462;-74
2022/10/30 01:34:13;;;;;;;27.37;15.75;;;;;;;;;;5323301;27;20007;-74
2022/10/30 01:36:47;;;;;;;28.70;14.65;;;;;;;;;;5323755;27;20060;-74
2022/10/30 01:39:20;;;;;;;26.50;15.60;;;;;;;;;;5323632;26;20008;-74
2022/10/30 01:41:46;;;;;;;28.58;16.45;;;;;;;;;;5326209;27;20044;-74
2022/10/30 01:44:23;;;;;;;27.40;15.38;;;;;;;;;;5323364;27;20019;-74
2022/10/30 01:46:59;;;;;;;27.37;15.93;;;;;;;;;;5326360;27;19992;-74
2022/10/30 01:49:45;;;;;;;34.20;15.48;;;;;;;;;;5325840;27;20000;-73
2022/10/30 01:52:20;;;;;;;33.97;14.80;;;;;;;;;;5322752;27;19996;-72
2022/10/30 01:54:45;;;;;;;25.70;15.05;;;;;;;;;;5322121;27;20360;-73
2022/10/30 01:57:19;;;;;;;29.65;16.02;;;;;;;;;;5324353;27;20015;-73
2022/10/30 01:59:47;;;;;;;27.52;15.45;;;;;;;;;;5324770;27;20377;-73
2022/10/30 02:02:13;;;;;;;28.48;15.93;;;;;;;;;;5323333;27;20059;-73
2022/10/30 02:04:38;;;;;;;32.95;15.93;;;;;;;;;;5326209;27;20363;-73
2022/10/30 02:07:03;;;;;;;26.42;16.25;;;;;;;;;;5305888;27;20405;-72
2022/10/30 02:09:29;;;;;;;28.62;16.40;;;;;;;;;;5324299;27;20005;-73
2022/10/30 02:11:54;;;;;;;33.13;16.00;;;;;;;;;;5306799;27;20001;-73
2022/10/30 02:14:22;;;;;;;35.67;17.62;;;;;;;;;;5324219;27;20001;-73
2022/10/30 02:16:49;;;;;;;30.23;16.33;;;;;;;;;;5303295;27;20000;-73
2022/10/30 02:19:14;;;;;;;25.80;16.23;;;;;;;;;;5325617;27;20004;-73
2022/10/30 02:21:40;;;;;;;31.75;17.33;;;;;;;;;;5322332;27;20407;-73
2022/10/30 02:24:05;;;;;;;33.70;17.50;;;;;;;;;;5322230;27;20374;-73
2022/10/30 02:26:30;;;;;;;30.73;17.92;;;;;;;;;;5322202;27;20001;-73
2022/10/30 02:28:55;;;;;;;36.55;18.55;;;;;;;;;;5323045;27;20001;-73
2022/10/30 02:31:21;;;;;;;37.23;17.87;;;;;;;;;;5324899;27;20052;-74
2022/10/30 02:33:47;;;;;;;32.70;17.33;;;;;;;;;;5322452;27;20096;-73
2022/10/30 02:36:14;;;;;;;29.00;17.00;;;;;;;;;;5322530;27;20001;-73
2022/10/30 02:38:39;;;;;;;27.30;16.83;;;;;;;;;;5324293;26;20042;-73
2022/10/30 02:41:04;;;;;;;;;;;;;;;;;;5326250;27;19989;-73
2022/10/30 02:43:29;;;;;;;34.40;19.50;;;;;;;;;;5325504;27;19932;-73
2022/10/30 02:45:55;;;;;;;28.30;17.40;;;;;;;;;;5323447;27;20321;-73
2022/10/30 02:48:20;;;;;;;31.90;16.83;;;;;;;;;;5304216;27;20088;-73
2022/10/30 02:50:45;;;;;;;30.30;19.37;;;;;;;;;;5323049;27;20116;-73
2022/10/30 02:53:10;;;;;;;37.30;18.20;;;;;;;;;;5326061;27;20348;-73
2022/10/30 02:55:35;;;;;;;42.20;17.87;;;;;;;;;;5305270;27;20011;-74
2022/10/30 02:58:00;;;;;;;40.53;18.02;;;;;;;;;;5325714;27;20122;-73
2022/10/30 03:00:26;;;;;;;32.97;17.60;;;;;;;;;;5322656;27;20107;-74
2022/10/30 03:02:57;;;;;;;28.62;19.75;;;;;;;;;;5322664;27;20149;-73
2022/10/30 03:05:22;;;;;;;32.03;19.95;;;;;;;;;;5323009;27;20011;-73
2022/10/30 03:07:47;;;;;;;;;;;;;;;;;;5303318;27;20005;-74
2022/10/30 03:10:13;;;;;;;34.88;20.40;;;;;;;;;;5322125;27;19963;-73
2022/10/30 03:12:38;;;;;;;39.65;19.92;;;;;;;;;;5323635;27;20401;-73
2022/10/30 03:15:03;;;;;;;36.67;22.15;;;;;;;;;;5322308;27;20024;-73
2022/10/30 03:17:29;;;;;;;40.80;20.67;;;;;;;;;;5325319;27;20061;-73
2022/10/30 03:19:54;;;;;;;;;;;;;;;;;;5325816;27;20001;-73
2022/10/30 03:22:19;;;;;;;31.45;19.48;;;;;;;;;;5325568;27;19931;-73
2022/10/30 03:24:44;;;;;;;39.85;21.52;;;;;;;;;;5322745;27;20000;-73
2022/10/30 03:27:09;;;;;;;30.92;19.75;;;;;;;;;;5303132;27;20360;-74
2022/10/30 03:29:34;;;;;;;33.95;20.27;;;;;;;;;;5326963;27;20028;-74
2022/10/30 03:32:00;;;;;;;30.20;20.67;;;;;;;;;;5307706;27;20435;-74
2022/10/30 03:34:26;;;;;;;34.17;21.45;;;;;;;;;;5305681;27;20011;-74
2022/10/30 03:36:51;;;;;;;38.85;20.75;;;;;;;;;;5327489;27;20290;-74
2022/10/30 03:39:16;;;;;;;;;;;;;;;;;;5325220;26;20027;-75
2022/10/30 03:41:42;;;;;;;33.65;20.15;;;;;;;;;;5324407;27;19927;-73
2022/10/30 03:44:07;;;;;;;40.88;19.95;;;;;;;;;;5326623;27;20096;-74
2022/10/30 03:46:32;;;;;;;32.75;18.98;;;;;;;;;;5306730;27;20028;-74
2022/10/30 03:48:57;;;;;;;;;;;;;;;;;;5324853;27;20015;-73
2022/10/30 03:51:23;;;;;;;28.25;19.37;;;;;;;;;;5324819;27;19928;-72
2022/10/30 03:53:48;;;;;;;;;;;;;;;;;;5304398;27;20147;-73
2022/10/30 03:56:13;;;;;;;34.80;20.62;;;;;;;;;;5323505;27;20067;-73
2022/10/30 03:58:38;;;;;;;34.00;21.17;;;;;;;;;;5326282;27;20104;-73
2022/10/30 04:01:04;;;;;;;36.90;21.27;;;;;;;;;;5323132;27;20008;-73
2022/10/30 04:03:29;;;;;;;34.72;22.13;;;;;;;;;;5306378;27;20015;-73
2022/10/30 04:05:55;;;;;;;36.15;21.73;;;;;;;;;;5326216;27;20020;-73
2022/10/30 04:08:20;;;;;;;32.80;21.20;;;;;;;;;;5323753;27;20001;-73
2022/10/30 04:10:45;;;;;;;41.05;22.05;;;;;;;;;;5308804;27;20408;-73
2022/10/30 04:13:11;;;;;;;38.05;23.17;;;;;;;;;;5327078;27;20015;-73
2022/10/30 04:15:37;;;;;;;37.47;22.77;;;;;;;;;;5326993;27;20031;-74
2022/10/30 04:18:02;;;;;;;;;;;;;;;;;;5324633;27;20000;-73
2022/10/30 04:20:28;;;;;;;44.80;21.90;;;;;;;;;;5325754;27;19924;-73
2022/10/30 04:22:56;;;;;;;50.10;22.87;;;;;;;;;;5324356;27;20032;-74
2022/10/30 04:25:22;;;;;;;38.53;24.12;;;;;;;;;;5306021;27;20007;-73
2022/10/30 04:27:48;;;;;;;;;;;;;;;;;;5328222;27;20360;-74
2022/10/30 04:30:13;;;;;;;36.05;20.80;;;;;;;;;;5325213;27;20365;-74
2022/10/30 04:32:38;;;;;;;;;;;;;;;;;;5325563;27;20001;-74
2022/10/30 04:35:03;;;;;;;31.73;19.37;;;;;;;;;;5324206;27;19956;-74
2022/10/30 04:37:29;;;;;;;39.92;24.02;;;;;;;;;;5324653;27;20027;-74
2022/10/30 04:39:54;;;;;;;39.13;23.30;;;;;;;;;;5303762;27;20027;-74
2022/10/30 04:42:19;;;;;;;33.70;21.83;;;;;;;;;;5305409;27;20329;-74
2022/10/30 04:44:45;;;;;;;41.13;22.95;;;;;;;;;;5324733;27;20067;-74
2022/10/30 04:47:10;;;;;;;34.90;22.50;;;;;;;;;;5324292;27;20100;-74
2022/10/30 04:49:35;;;;;;;44.28;24.00;;;;;;;;;;5324577;27;20000;-74
2022/10/30 04:52:00;;;;;;;46.33;25.10;;;;;;;;;;5325465;27;20001;-73
2022/10/30 04:54:27;;;;;;;34.03;23.25;;;;;;;;;;5325770;27;20000;-73
2022/10/30 04:56:52;;;;;;;38.08;23.00;;;;;;;;;;5326007;27;20383;-73
2022/10/30 04:59:17;;;;;;;44.10;22.87;;;;;;;;;;5326053;27;20015;-73
2022/10/30 05:01:43;;;;;;;33.35;21.75;;;;;;;;;;5307702;27;20028;-73
2022/10/30 05:04:08;;;;;;;34.53;21.70;;;;;;;;;;5324470;27;20390;-73
2022/10/30 05:06:33;;;;;;;33.17;21.98;;;;;;;;;;5324612;27;20076;-74
2022/10/30 05:08:58;;;;;;;38.95;21.35;;;;;;;;;;5324702;27;20092;-74
2022/10/30 05:11:24;;;;;;;28.85;19.50;;;;;;;;;;5324955;27;20034;-75
2022/10/30 05:13:49;;;;;;;34.05;20.50;;;;;;;;;;5324608;27;20408;-74
2022/10/30 05:16:14;;;;;;;40.53;21.67;;;;;;;;;;5324975;27;20013;-74
2022/10/30 05:18:39;;;;;;;35.65;19.33;;;;;;;;;;5326867;27;20007;-74
2022/10/30 05:21:05;;;;;;;35.50;21.33;;;;;;;;;;5326847;27;20004;-74
2022/10/30 05:23:30;;;;;;;36.03;21.08;;;;;;;;;;5304516;27;20016;-74
2022/10/30 05:25:55;;;;;;;41.55;21.80;;;;;;;;;;5304358;27;20314;-73
2022/10/30 05:28:20;;;;;;;28.63;20.47;;;;;;;;;;5324772;27;20325;-72
2022/10/30 05:30:45;;;;;;;40.92;21.55;;;;;;;;;;5326575;27;20117;-73
2022/10/30 05:33:11;;;;;;;44.92;22.83;;;;;;;;;;5323668;27;20277;-72
2022/10/30 05:35:36;;;;;;;47.85;22.55;;;;;;;;;;5323013;27;20010;-72
2022/10/30 05:38:02;;;;;;;40.88;23.30;;;;;;;;;;5325882;27;20000;-73
2022/10/30 05:40:28;;;;;;;42.08;23.62;;;;;;;;;;5323233;26;20020;-72
2022/10/30 05:42:53;;;;;;;43.60;23.17;;;;;;;;;;5323567;27;20066;-73
2022/10/30 05:45:18;;;;;;;42.28;25.80;;;;;;;;;;5323888;27;20022;-73
2022/10/30 05:47:53;;;;;;;47.00;23.58;;;;;;;;;;5326171;27;20004;-73
2022/10/30 05:50:18;;;;;;;41.70;24.63;;;;;;;;;;5306491;27;20001;-73
2022/10/30 05:52:43;;;;;;;;;;;;;;;;;;5305694;27;20057;-73
2022/10/30 05:55:08;;;;;;;45.28;25.58;;;;;;;;;;5323619;27;19965;-74
2022/10/30 05:57:33;;;;;;;36.58;23.33;;;;;;;;;;5324237;27;20039;-72
2022/10/30 05:59:58;;;;;;;40.03;25.50;;;;;;;;;;5306341;27;20005;-73
2022/10/30 06:02:24;;;;;;;36.35;25.15;;;;;;;;;;5325508;27;20008;-73
2022/10/30 06:04:49;;;;;;;41.13;25.95;;;;;;;;;;5326169;27;20366;-72
2022/10/30 06:07:14;;;;;;;;;;;;;;;;;;5324228;27;20272;-73
2022/10/30 06:09:39;;;;;;;51.03;25.30;;;;;;;;;;5324512;27;19939;-73
2022/10/30 06:12:04;;;;;;;45.08;25.92;;;;;;;;;;5326052;27;20008;-73
2022/10/30 06:14:30;;;;;;;39.47;24.95;;;;;;;;;;5324562;27;20367;-73
2022/10/30 06:16:55;;;;;;;38.13;23.92;;;;;;;;;;5304638;27;20011;-74
2022/10/30 06:19:20;;;;;;;37.60;24.67;;;;;;;;;;5324334;27;19997;-72
2022/10/30 06:21:45;;;;;;;40.38;24.87;;;;;;;;;;5325831;27;20322;-72
2022/10/30 06:24:11;;;;;;;44.95;26.15;;;;;;;;;;5326624;27;20016;-73
2022/10/30 06:26:36;;;;;;;;;;;;;;;;;;5326764;27;20001;-74
2022/10/30 06:29:01;;;;;;;44.00;24.30;;;;;;;;;;5306657;27;19924;-73
2022/10/30 06:31:26;;;;;;;43.38;25.60;;;;;;;;;;5324465;27;20001;-73
2022/10/30 06:33:51;;;;;;;52.15;26.35;;;;;;;;;;5323367;27;20027;-73
2022/10/30 06:36:17;;;;;;;43.35;26.85;;;;;;;;;;5325491;27;20001;-73
2022/10/30 06:38:42;;;;;;;43.95;26.52;;;;;;;;;;5324053;26;20490;-72
2022/10/30 06:41:07;;;;;;;41.08;25.33;;;;;;;;;;5323755;27;19989;-73
2022/10/30 06:43:32;;;;;;;38.85;24.20;;;;;;;;;;5325498;27;20539;-72
2022/10/30 06:45:58;;;;;;;42.33;26.37;;;;;;;;;;5303599;27;20409;-72
2022/10/30 06:48:23;;;;;;;49.97;27.23;;;;;;;;;;5326087;27;20039;-73
2022/10/30 06:50:55;;;;;;;52.15;27.13;;;;;;;;;;5323949;27;20034;-74
2022/10/30 06:53:20;;;;;;;43.47;26.08;;;;;;;;;;5323949;27;20012;-74
2022/10/30 06:55:45;;;;;;;;;;;;;;;;;;5324859;27;20098;-74
2022/10/30 06:58:11;;;;;;;44.15;25.48;;;;;;;;;;5325547;27;19938;-73
2022/10/30 07:00:36;;;;;;;45.45;27.55;;;;;;;;;;5326771;27;20011;-75
2022/10/30 07:03:03;;;;;;;47.83;26.97;;;;;;;;;;5323551;27;20019;-73
2022/10/30 07:05:28;;;;;;;48.55;27.02;;;;;;;;;;5326366;27;20187;-74
2022/10/30 07:07:53;;;;;;;;;;;;;;;;;;5327501;27;20385;-74
2022/10/30 07:10:18;;;;;;;42.17;24.95;;;;;;;;;;5305736;27;19973;-74
2022/10/30 07:12:49;;;;;;;46.40;27.23;;;;;;;;;;5325750;27;20001;-74
2022/10/30 07:15:15;;;;;;;45.97;26.65;;;;;;;;;;5328097;27;19988;-74
2022/10/30 07:17:40;;;;;;;;;;;;;;;;;;5329314;27;20378;-73
2022/10/30 07:20:05;;;;;;;43.30;27.13;;;;;;;;;;5326073;27;19928;-74
2022/10/30 07:22:30;;;;;;;46.25;26.77;;;;;;;;;;5326160;27;20032;-73
2022/10/30 07:24:55;;;;;;;;;;;;;;;;;;5325009;27;20039;-74
2022/10/30 07:27:21;;;;;;;46.30;25.42;;;;;;;;;;5324690;27;20331;-73
2022/10/30 07:29:46;;;;;;;41.20;24.12;;;;;;;;;;5327337;27;20001;-73
2022/10/30 07:32:12;;;;;;;39.83;25.67;;;;;;;;;;5305459;27;20072;-73
2022/10/30 07:34:37;;;;;;;39.30;23.60;;;;;;;;;;5325144;27;20142;-73
2022/10/30 07:37:02;;;;;;;33.92;23.42;;;;;;;;;;5325298;27;20134;-73
2022/10/30 07:39:27;;;;;;;46.08;25.40;;;;;;;;;;5324628;26;20017;-73
2022/10/30 07:41:52;;;;;;;41.50;23.92;;;;;;;;;;5327361;27;20000;-74
2022/10/30 07:44:17;;;;;;;38.88;24.42;;;;;;;;;;5325140;27;20326;-73
2022/10/30 07:46:43;;;;;;;42.55;24.77;;;;;;;;;;5327884;27;20036;-74
2022/10/30 07:49:08;;;;;;;38.97;24.08;;;;;;;;;;5328652;27;20330;-73
2022/10/30 07:51:33;;;;;;;34.80;22.27;;;;;;;;;;5326225;27;20394;-73
2022/10/30 07:53:58;;;;;;;40.60;23.00;;;;;;;;;;5325404;27;20096;-73
2022/10/30 07:56:23;;;;;;;38.03;22.40;;;;;;;;;;5324458;27;20436;-73
2022/10/30 07:58:48;;;;;;;33.60;22.50;;;;;;;;;;5324331;27;20348;-73
2022/10/30 08:01:14;;;;;;;34.55;21.73;;;;;;;;;;5324553;27;20034;-74
2022/10/30 08:03:39;;;;;;;38.83;21.62;;;;;;;;;;5326724;27;20401;-74
2022/10/30 08:06:04;;;;;;;34.20;21.30;;;;;;;;;;5328551;27;20001;-73
2022/10/30 08:08:29;;;;;;;36.92;20.10;;;;;;;;;;5328437;27;20013;-73
2022/10/30 08:10:54;;;;;;;31.08;20.15;;;;;;;;;;5324501;27;20000;-73
2022/10/30 08:13:20;;;;;;;32.13;20.85;;;;;;;;;;5324163;27;20087;-73
2022/10/30 08:15:45;;;;;;;40.83;22.05;;;;;;;;;;5326514;27;20001;-72
2022/10/30 08:18:10;;;;;;;31.80;19.05;;;;;;;;;;5307094;27;20001;-72
2022/10/30 08:20:35;;;;;;;32.78;18.83;;;;;;;;;;5325990;27;20004;-72
2022/10/30 08:23:00;;;;;;;37.42;18.77;;;;;;;;;;5324993;27;20005;-73
2022/10/30 08:25:27;;;;;;;35.63;18.90;;;;;;;;;;5325060;27;20017;-73
2022/10/30 08:27:53;;;;;;;26.65;17.33;;;;;;;;;;5324533;27;20107;-73
2022/10/30 08:30:18;;;;;;;28.98;17.83;;;;;;;;;;5328437;27;20018;-73
2022/10/30 08:32:44;;;;;;;34.47;18.80;;;;;;;;;;5326867;27;20348;-73
2022/10/30 08:35:09;;;;;;;27.65;17.83;;;;;;;;;;5325208;27;20016;-73
2022/10/30 08:37:34;;;;;;;36.45;17.62;;;;;;;;;;5325445;27;20001;-73
2022/10/30 08:39:59;;;;;;;26.50;16.58;;;;;;;;;;5323829;26;20396;-74
2022/10/30 08:42:24;;;;;;;27.48;16.55;;;;;;;;;;5324589;27;20064;-74
2022/10/30 08:44:50;;;;;;;30.73;16.33;;;;;;;;;;5304963;27;20046;-73
2022/10/30 08:47:15;;;;;;;23.75;14.60;;;;;;;;;;5325082;27;20106;-73
2022/10/30 08:49:40;;;;;;;26.75;15.57;;;;;;;;;;5304135;27;20000;-72
2022/10/30 08:52:08;;;;;;;25.17;15.68;;;;;;;;;;5323951;27;20029;-72
2022/10/30 08:54:34;;;;;;;31.73;16.20;;;;;;;;;;5324585;27;20143;-72
2022/10/30 08:56:59;;;;;;;28.27;14.60;;;;;;;;;;5323375;27;20001;-73
2022/10/30 08:59:24;;;;;;;26.42;15.32;;;;;;;;;;5304898;27;20019;-73
2022/10/30 09:01:49;;;;;;;28.48;15.95;;;;;;;;;;5325221;27;20372;-74
2022/10/30 09:04:15;;;;;;;23.42;15.25;;;;;;;;;;5327258;27;20060;-74
2022/10/30 09:06:40;;;;;;;25.10;16.17;;;;;;;;;;5327406;27;20001;-75
2022/10/30 09:09:05;;;;;;;28.03;15.73;;;;;;;;;;5327065;27;20279;-74
2022/10/30 09:11:30;;;;;;;28.10;15.63;;;;;;;;;;5326559;27;20139;-74
2022/10/30 09:13:55;;;;;;;25.92;15.15;;;;;;;;;;5325017;27;20078;-74
2022/10/30 09:16:20;;;;;;;27.83;14.30;;;;;;;;;;5327724;27;20001;-74
2022/10/30 09:18:46;;;;;;;33.60;15.05;;;;;;;;;;5325721;27;20130;-70
2022/10/30 09:21:11;;;;;;;28.47;14.73;;;;;;;;;;5327583;27;20000;-70
2022/10/30 09:23:36;;;;;;;24.45;15.07;;;;;;;;;;5312430;27;20095;-70
2022/10/30 09:26:01;;;;;;;28.00;13.80;;;;;;;;;;5330454;27;20020;-72
2022/10/30 09:28:26;;;;;;;28.67;15.38;;;;;;;;;;5328788;27;20136;-71
2022/10/30 09:30:55;;;;;;;24.05;14.82;;;;;;;;;;5326110;27;20007;-71
2022/10/30 09:33:20;;;;;;;27.77;15.35;;;;;;;;;;5328320;27;20000;-69
2022/10/30 09:35:45;;;;;;;29.27;14.70;;;;;;;;;;5305847;27;20030;-72
2022/10/30 09:38:11;;;;;;;28.13;15.03;;;;;;;;;;5325764;27;19997;-70
2022/10/30 09:40:37;;;;;;;31.80;15.82;;;;;;;;;;5327101;27;20077;-71
2022/10/30 09:43:14;;;;;;;25.00;15.18;;;;;;;;;;5325625;27;20004;-71
2022/10/30 09:45:47;;;;;;;25.80;13.88;;;;;;;;;;5325400;27;20104;-72
2022/10/30 09:48:19;;;;;;;25.73;14.50;;;;;;;;;;5325719;27;20369;-70
2022/10/30 09:51:02;;;;;;;25.48;14.25;;;;;;;;;;5327648;27;20085;-71
2022/10/30 09:53:39;;;;;;;26.30;13.45;;;;;;;;;;5328368;27;20037;-71
2022/10/30 09:56:11;;;;;;;31.35;14.38;;;;;;;;;;5305561;27;20001;-70
2022/10/30 09:58:36;;;;;;;28.23;14.52;;;;;;;;;;5327142;27;20387;-70
2022/10/30 10:01:16;;;;;;;28.75;14.70;;;;;;;;;;5330732;27;20001;-71
2022/10/30 10:04:04;;;;;;;25.25;14.38;;;;;;;;;;5332687;27;20027;-69
2022/10/30 10:06:32;;;;;;;23.12;13.65;;;;;;;;;;5330091;27;20000;-70
2022/10/30 10:09:03;;;;;;;28.90;13.77;;;;;;;;;;5330461;27;20041;-70
2022/10/30 10:11:33;;;;;;;21.10;12.15;;;;;;;;;;5334503;27;20041;-69
2022/10/30 10:14:01;;;;;;;26.80;12.82;;;;;;;;;;5333611;27;19996;-70
2022/10/30 10:16:32;;;;;;;19.25;11.40;;;;;;;;;;5337138;27;20012;-71
2022/10/30 10:19:02;;;;;;;27.77;12.07;;;;;;;;;;5343285;27;20012;-71
2022/10/30 10:21:28;;;;;;;23.30;12.45;;;;;;;;;;5346452;27;20023;-71
2022/10/30 10:23:54;;;;;;;23.58;11.95;;;;;;;;;;5346455;27;20005;-69
2022/10/30 10:26:28;;;;;;;23.05;12.32;;;;;;;;;;5345839;27;20019;-71
2022/10/30 10:29:12;;;;;;;29.10;12.52;;;;;;;;;;5343726;27;20016;-72
2022/10/30 10:31:49;;;;;;;27.33;12.82;;;;;;;;;;5324765;27;20005;-69
2022/10/30 10:34:27;;;;;;;22.83;14.35;;;;;;;;;;5334963;27;20024;-69
2022/10/30 10:36:52;;;;;;;21.37;12.18;;;;;;;;;;5333038;27;20025;-71
2022/10/30 10:39:28;;;;;;;20.88;12.37;;;;;;;;;;5333131;26;20039;-70
2022/10/30 10:41:53;;;;;;;36.45;14.45;;;;;;;;;;5337140;27;20254;-70
2022/10/30 10:44:22;;;;;;;26.95;12.32;;;;;;;;;;5337429;27;20001;-70
2022/10/30 10:46:47;;;;;;;27.83;14.30;;;;;;;;;;5329853;27;20107;-70
2022/10/30 10:49:26;;;;;;;20.90;12.00;;;;;;;;;;5332206;27;20039;-69
2022/10/30 10:51:58;;;;;;;34.15;13.13;;;;;;;;;;5332173;27;20122;-70
2022/10/30 10:54:26;;;;;;;24.70;10.63;;;;;;;;;;5337370;27;20008;-70
2022/10/30 10:56:51;;;;;;;22.75;11.82;;;;;;;;;;5338924;27;20001;-70
2022/10/30 10:59:35;;;;;;;22.55;10.88;;;;;;;;;;5339790;27;20000;-70
2022/10/30 11:02:22;;;;;;;26.65;11.88;;;;;;;;;;5320082;27;20007;-69
2022/10/30 11:04:50;;;;;;;26.45;11.43;;;;;;;;;;5339334;27;20007;-70
2022/10/30 11:07:32;;;;;;;32.47;12.23;;;;;;;;;;5333139;27;20002;-70
2022/10/30 11:09:58;;;;;;;25.58;11.25;;;;;;;;;;5309555;27;20012;-71
2022/10/30 11:12:27;;;;;;;27.47;11.70;;;;;;;;;;5331388;27;20043;-71
2022/10/30 11:14:52;;;;;;;23.50;12.82;;;;;;;;;;5333244;27;20490;-71
2022/10/30 11:17:44;;;;;;;24.90;13.20;;;;;;;;;;5331477;27;20000;-70
2022/10/30 11:20:32;;;;;;;23.33;12.10;;;;;;;;;;5323839;27;20463;-70
2022/10/30 11:22:58;;;;;;;19.90;11.68;;;;;;;;;;5315045;27;20009;-71
2022/10/30 11:25:24;;;;;;;21.10;11.67;;;;;;;;;;5328066;27;20063;-70
2022/10/30 11:27:54;;;;;;;25.20;12.57;;;;;;;;;;5330201;27;20181;-70
2022/10/30 11:30:20;;;;;;;24.20;12.52;;;;;;;;;;5326935;27;20302;-70
2022/10/30 11:32:46;;;;;;;22.27;11.77;;;;;;;;;;5326884;27;20000;-71
2022/10/30 11:35:15;;;;;;;22.48;12.25;;;;;;;;;;5307001;27;20409;-70
2022/10/30 11:37:41;;;;;;;34.28;20.77;;;;;;;;;;5328652;27;20027;-70
2022/10/30 11:40:09;;;;;;;24.35;11.75;;;;;;;;;;5326278;26;20024;-70
2022/10/30 11:42:35;;;;;;;23.55;13.10;;;;;;;;;;5328433;27;20044;-70
2022/10/30 11:45:01;;;;;;;23.33;13.57;;;;;;;;;;5329211;27;20090;-71
2022/10/30 11:47:30;;;;;;;22.20;12.15;;;;;;;;;;5327838;27;20001;-71
2022/10/30 11:49:58;;;;;;;30.70;14.90;;;;;;;;;;5327781;27;20018;-71
2022/10/30 11:52:24;;;;;;;22.52;13.20;;;;;;;;;;5327764;27;20020;-71
2022/10/30 11:54:51;;;;;;;23.95;13.30;;;;;;;;;;5328891;27;20007;-70
2022/10/30 11:57:21;;;;;;;29.50;14.05;;;;;;;;;;5326887;27;20005;-71
2022/10/30 11:59:47;;;;;;;24.63;12.40;;;;;;;;;;5327332;27;20412;-71
2022/10/30 12:02:20;;;;;;;35.13;13.43;;;;;;;;;;5328086;27;20024;-71
2022/10/30 12:04:45;;;;;;;25.83;14.95;;;;;;;;;;5326635;27;20291;-71
2022/10/30 12:07:11;;;;;;;27.10;14.35;;;;;;;;;;5329220;27;20084;-71
2022/10/30 12:09:46;;;;;;;34.33;16.05;;;;;;;;;;5326321;27;20370;-71
2022/10/30 12:12:20;;;;;;;20.83;12.68;;;;;;;;;;5328410;27;20000;-72
2022/10/30 12:14:45;;;;;;;31.10;12.37;;;;;;;;;;5329007;27;20019;-71
2022/10/30 12:17:13;;;;;;;28.77;13.73;;;;;;;;;;5328140;27;20045;-72
2022/10/30 12:19:44;;;;;;;25.10;13.40;;;;;;;;;;5325981;27;20000;-72
2022/10/30 12:22:09;;;;;;;22.50;13.13;;;;;;;;;;5327830;27;19999;-71
2022/10/30 12:24:35;;;;;;;24.35;12.77;;;;;;;;;;5327251;27;20001;-70
2022/10/30 12:27:05;;;;;;;27.80;13.05;;;;;;;;;;5326272;27;20379;-71
2022/10/30 12:29:42;;;;;;;22.20;13.10;;;;;;;;;;5326258;27;20044;-71
2022/10/30 12:32:10;;;;;;;26.00;12.70;;;;;;;;;;5328529;27;19992;-71
2022/10/30 12:34:40;;;;;;;28.60;13.77;;;;;;;;;;5327571;27;20004;-70
2022/10/30 12:37:15;;;;;;;21.67;13.20;;;;;;;;;;5325608;27;20367;-70
2022/10/30 12:39:41;;;;;;;25.75;12.43;;;;;;;;;;5325407;26;20017;-70
2022/10/30 12:42:09;;;;;;;25.65;14.05;;;;;;;;;;5326647;27;20034;-70
2022/10/30 12:44:36;;;;;;;27.00;12.23;;;;;;;;;;5326230;27;20128;-70
2022/10/30 12:47:20;;;;;;;26.12;12.40;;;;;;;;;;5324200;27;20000;-70
2022/10/30 12:50:04;;;;;;;29.08;13.25;;;;;;;;;;5305222;27;20005;-70
2022/10/30 12:52:38;;;;;;;31.12;14.23;;;;;;;;;;5328442;27;20343;-71
2022/10/30 12:55:13;;;;;;;29.08;14.13;;;;;;;;;;5324559;27;20108;-71
2022/10/30 12:58:02;;;;;;;26.05;13.82;;;;;;;;;;5327468;27;20007;-72
2022/10/30 13:00:29;;;;;;;27.05;15.32;;;;;;;;;;5326350;27;19997;-71
2022/10/30 13:02:56;;;;;;;19.05;12.30;;;;;;;;;;5327514;27;20066;-72
2022/10/30 13:05:40;;;;;;;26.42;13.13;;;;;;;;;;5328320;27;20068;-72
2022/10/30 13:08:24;;;;;;;28.90;13.60;;;;;;;;;;5324190;27;20004;-71
2022/10/30 13:10:56;;;;;;;26.58;13.48;;;;;;;;;;5323559;27;20004;-72
2022/10/30 13:13:26;;;;;;;25.60;14.77;;;;;;;;;;5326380;27;20311;-72
2022/10/30 13:15:53;;;;;;;28.33;14.27;;;;;;;;;;5325108;27;19989;-72
2022/10/30 13:18:20;;;;;;;26.42;13.18;;;;;;;;;;5323944;27;20001;-72
2022/10/30 13:21:01;;;;;;;30.37;14.48;;;;;;;;;;5324044;27;20005;-73
2022/10/30 13:23:30;;;;;;;22.20;12.45;;;;;;;;;;5324980;27;20019;-72
2022/10/30 13:26:06;;;;;;;33.72;12.57;;;;;;;;;;5324252;27;20350;-71
2022/10/30 13:28:42;;;;;;;26.08;12.90;;;;;;;;;;5327631;27;20015;-73
2022/10/30 13:31:20;;;;;;;28.65;12.93;;;;;;;;;;5325041;27;19997;-73
2022/10/30 13:33:45;;;;;;;21.73;12.35;;;;;;;;;;5327305;27;20008;-73
2022/10/30 13:36:17;;;;;;;24.58;13.13;;;;;;;;;;5325286;27;20000;-72
2022/10/30 13:38:42;;;;;;;25.37;14.00;;;;;;;;;;5323664;26;20112;-73
2022/10/30 13:41:26;;;;;;;30.52;15.05;;;;;;;;;;5326294;27;19989;-72
2022/10/30 13:43:55;;;;;;;30.77;14.70;;;;;;;;;;5305015;27;20414;-72
2022/10/30 13:46:31;;;;;;;24.33;13.43;;;;;;;;;;5324426;27;20000;-72
2022/10/30 13:48:56;;;;;;;27.55;13.00;;;;;;;;;;5326687;27;20031;-72
2022/10/30 13:51:21;;;;;;;17.60;12.20;;;;;;;;;;5323853;27;20016;-72
2022/10/30 13:53:48;;;;;;;23.60;13.40;;;;;;;;;;5324430;27;20031;-73
2022/10/30 13:56:16;;;;;;;22.50;11.90;;;;;;;;;;5303725;27;20143;-72
2022/10/30 13:58:48;;;;;;;22.35;11.73;;;;;;;;;;5326392;27;20007;-73
2022/10/30 14:01:22;;;;;;;23.12;11.30;;;;;;;;;;5304213;27;20035;-73
2022/10/30 14:03:56;;;;;;;22.48;11.30;;;;;;;;;;5324048;27;20005;-73
2022/10/30 14:06:42;;;;;;;21.62;10.85;;;;;;;;;;5326333;27;20016;-72
2022/10/30 14:09:26;;;;;;;20.88;10.90;;;;;;;;;;5308764;27;20018;-73
2022/10/30 14:11:54;;;;;;;18.30;10.60;;;;;;;;;;5325862;27;20013;-72
2022/10/30 14:14:22;;;;;;;19.45;9.13;;;;;;;;;;5304709;27;20057;-72
2022/10/30 14:17:06;;;;;;;22.77;11.77;;;;;;;;;;5328752;27;20031;-73
2022/10/30 14:19:31;;;;;;;22.58;9.82;;;;;;;;;;5325344;27;20046;-72
2022/10/30 14:21:57;;;;;;;21.03;10.07;;;;;;;;;;5325116;27;20382;-73
2022/10/30 14:24:22;;;;;;;21.90;10.38;;;;;;;;;;5326084;27;20096;-73
2022/10/30 14:26:51;;;;;;;18.65;10.45;;;;;;;;;;5325725;27;20011;-72